createdAt,value
2016-07-13T00:00:10.217Z,99.99
2016-07-13T00:01:10.189Z,99.99
2016-07-13T00:02:10.205Z,99.99
2016-07-13T00:03:10.171Z,99.99
2016-07-13T00:04:10.157Z,99.99
2016-07-13T00:05:10.125Z,99.99
2016-07-13T00:06:10.163Z,99.99
2016-07-13T00:07:09.388Z,99.99
2016-07-13T00:08:10.141Z,99.99
2016-07-13T00:09:09.367Z,99.99
2016-07-13T00:10:10.066Z,99.99
2016-07-13T00:11:10.055Z,99.99
2016-07-13T00:12:10.071Z,99.99
2016-07-13T00:13:10.026Z,99.99
2016-07-13T00:14:10.017Z,99.99
2016-07-13T00:15:10.008Z,99.99
2016-07-13T00:16:09.997Z,99.99
2016-07-13T00:17:09.275Z,99.99
2016-07-13T00:18:09.960Z,99.99
2016-07-13T00:19:09.946Z,99.99
2016-07-13T00:20:09.940Z,99.99
2016-07-13T00:21:09.209Z,99.99
2016-07-13T00:22:09.908Z,99.99
2016-07-13T00:23:09.899Z,99.99
2016-07-13T00:24:09.888Z,99.99
2016-07-13T00:25:09.866Z,99.99
2016-07-13T00:26:09.851Z,99.99
2016-07-13T00:27:09.862Z,99.99
2016-07-13T00:28:09.823Z,99.99
2016-07-13T00:29:09.812Z,99.99
2016-07-13T00:30:09.810Z,99.99
2016-07-13T00:31:09.785Z,99.99
2016-07-13T00:32:09.777Z,99.99
2016-07-13T00:33:09.756Z,99.99
2016-07-13T00:34:09.746Z,99.99
2016-07-13T00:35:09.736Z,99.99
2016-07-13T00:36:09.729Z,99.99
2016-07-13T00:37:09.707Z,99.99
2016-07-13T00:38:09.695Z,99.99
2016-07-13T00:39:09.687Z,99.99
2016-07-13T00:40:09.742Z,99.99
2016-07-13T00:41:08.938Z,99.99
2016-07-13T00:42:09.698Z,99.99
2016-07-13T00:43:09.639Z,99.99
2016-07-13T00:44:08.969Z,99.99
2016-07-13T00:45:09.594Z,99.99
2016-07-13T00:46:09.600Z,99.99
2016-07-13T00:47:09.577Z,99.99
2016-07-13T00:48:08.860Z,99.99
2016-07-13T00:49:08.831Z,99.99
2016-07-13T00:50:09.546Z,99.99
2016-07-13T00:51:09.514Z,99.99
2016-07-13T00:52:09.509Z,99.99
2016-07-13T00:53:08.779Z,99.99
2016-07-13T00:54:09.479Z,99.99
2016-07-13T00:55:09.463Z,99.99
2016-07-13T00:56:08.816Z,99.99
2016-07-13T00:57:09.432Z,99.99
2016-07-13T00:58:09.426Z,99.99
2016-07-13T00:59:09.414Z,99.99
2016-07-13T01:00:09.394Z,99.99
2016-07-13T01:01:09.383Z,99.99
2016-07-13T01:02:09.371Z,99.99
2016-07-13T01:03:09.355Z,99.99
2016-07-13T01:04:09.356Z,99.99
2016-07-13T01:05:09.334Z,99.99
2016-07-13T01:06:09.316Z,99.99
2016-07-13T01:07:09.308Z,99.99
2016-07-13T01:08:09.289Z,99.99
2016-07-13T01:09:09.279Z,99.99
2016-07-13T01:10:09.262Z,99.99
2016-07-13T01:11:09.249Z,99.99
2016-07-13T01:12:09.234Z,99.99
2016-07-13T01:13:08.519Z,99.99
2016-07-13T01:14:09.202Z,99.99
2016-07-13T01:15:09.198Z,99.99
2016-07-13T01:16:09.188Z,99.99
2016-07-13T01:17:08.456Z,99.99
2016-07-13T01:18:09.151Z,99.99
2016-07-13T01:19:09.150Z,99.99
2016-07-13T01:20:09.122Z,99.99
2016-07-13T01:21:09.140Z,99.99
2016-07-13T01:22:09.104Z,99.99
2016-07-13T01:23:09.098Z,99.99
2016-07-13T01:24:09.069Z,99.99
2016-07-13T01:25:09.052Z,99.99
2016-07-13T01:26:08.328Z,99.99
2016-07-13T01:27:09.031Z,99.99
2016-07-13T01:28:09.032Z,99.99
2016-07-13T01:29:09.006Z,99.99
2016-07-13T01:30:08.995Z,99.99
2016-07-13T01:31:09.000Z,99.99
2016-07-13T01:32:08.968Z,99.99
2016-07-13T01:33:08.957Z,99.99
2016-07-13T01:34:08.936Z,99.99
2016-07-13T01:35:08.927Z,99.99
2016-07-13T01:36:08.903Z,99.99
2016-07-13T01:37:08.904Z,99.99
2016-07-13T01:38:08.890Z,99.99
2016-07-13T01:39:08.921Z,99.99
2016-07-13T01:40:08.857Z,99.99
2016-07-13T01:41:08.887Z,99.99
2016-07-13T01:42:08.110Z,99.99
2016-07-13T01:43:08.863Z,99.99
2016-07-13T01:44:08.801Z,99.99
2016-07-13T01:45:08.798Z,99.99
2016-07-13T01:46:08.781Z,99.99
2016-07-13T01:47:08.758Z,99.99
2016-07-13T01:48:08.743Z,99.99
2016-07-13T01:49:08.740Z,99.99
2016-07-13T01:50:08.715Z,99.99
2016-07-13T01:51:08.710Z,99.99
2016-07-13T01:52:08.700Z,99.99
2016-07-13T01:53:08.681Z,99.99
2016-07-13T01:54:08.667Z,99.99
2016-07-13T01:55:08.668Z,99.99
2016-07-13T01:56:08.635Z,99.99
2016-07-13T01:57:08.642Z,99.99
2016-07-13T01:58:08.600Z,99.99
2016-07-13T01:59:08.599Z,99.99
2016-07-13T02:00:08.594Z,99.99
2016-07-13T02:01:08.637Z,99.99
2016-07-13T02:02:08.555Z,99.99
2016-07-13T02:03:07.832Z,99.99
2016-07-13T02:04:08.528Z,99.99
2016-07-13T02:05:08.506Z,99.99
2016-07-13T02:06:08.502Z,99.99
2016-07-13T02:07:08.498Z,99.99
2016-07-13T02:08:08.481Z,99.99
2016-07-13T02:09:08.461Z,99.99
2016-07-13T02:10:08.439Z,99.99
2016-07-13T02:11:08.442Z,99.99
2016-07-13T02:12:08.417Z,99.99
2016-07-13T02:13:08.411Z,99.99
2016-07-13T02:14:08.386Z,99.99
2016-07-13T02:15:08.377Z,99.99
2016-07-13T02:16:08.358Z,99.99
2016-07-13T02:17:08.347Z,99.99
2016-07-13T02:18:08.337Z,99.99
2016-07-13T02:19:08.320Z,99.99
2016-07-13T02:20:08.322Z,99.99
2016-07-13T02:21:08.289Z,99.99
2016-07-13T02:22:08.290Z,99.99
2016-07-13T02:23:08.262Z,99.99
2016-07-13T02:24:08.250Z,99.99
2016-07-13T02:25:07.527Z,99.99
2016-07-13T02:26:08.219Z,99.99
2016-07-13T02:27:08.208Z,99.99
2016-07-13T02:28:08.191Z,99.99
2016-07-13T02:29:08.178Z,99.99
2016-07-13T02:30:08.170Z,99.99
2016-07-13T02:31:08.162Z,99.99
2016-07-13T02:32:07.426Z,99.99
2016-07-13T02:33:08.128Z,99.99
2016-07-13T02:34:08.107Z,99.99
2016-07-13T02:35:08.107Z,99.99
2016-07-13T02:36:08.089Z,99.99
2016-07-13T02:37:08.070Z,99.99
2016-07-13T02:38:08.061Z,99.99
2016-07-13T02:39:08.049Z,99.99
2016-07-13T02:40:08.039Z,99.99
2016-07-13T02:41:08.011Z,99.99
2016-07-13T02:42:08.027Z,99.99
2016-07-13T02:43:07.986Z,99.99
2016-07-13T02:44:07.971Z,99.99
2016-07-13T02:45:07.954Z,99.99
2016-07-13T02:46:07.981Z,99.99
2016-07-13T02:47:07.921Z,99.99
2016-07-13T02:48:07.950Z,99.99
2016-07-13T02:49:07.897Z,99.99
2016-07-13T02:50:07.883Z,99.99
2016-07-13T02:51:07.864Z,99.99
2016-07-13T02:52:07.855Z,99.99
2016-07-13T02:53:07.119Z,99.99
2016-07-13T02:54:07.826Z,99.99
2016-07-13T02:55:07.838Z,99.99
2016-07-13T02:56:07.793Z,99.99
2016-07-13T02:57:07.776Z,99.99
2016-07-13T02:58:07.770Z,99.99
2016-07-13T02:59:07.761Z,99.99
2016-07-13T03:00:07.741Z,99.99
2016-07-13T03:01:07.724Z,99.99
2016-07-13T03:02:07.752Z,99.99
2016-07-13T03:03:07.701Z,99.99
2016-07-13T03:04:07.743Z,99.99
2016-07-13T03:05:07.664Z,99.99
2016-07-13T03:06:07.659Z,99.99
2016-07-13T03:07:07.636Z,99.99
2016-07-13T03:08:07.622Z,99.99
2016-07-13T03:09:07.604Z,99.99
2016-07-13T03:10:07.624Z,99.99
2016-07-13T03:11:06.941Z,99.99
2016-07-13T03:12:06.860Z,99.99
2016-07-13T03:13:07.560Z,99.99
2016-07-13T03:14:06.817Z,99.99
2016-07-13T03:15:07.526Z,99.99
2016-07-13T03:16:07.506Z,99.99
2016-07-13T03:17:07.509Z,99.99
2016-07-13T03:18:07.531Z,99.99
2016-07-13T03:19:06.750Z,99.99
2016-07-13T03:20:07.481Z,99.99
2016-07-13T03:21:07.439Z,99.99
2016-07-13T03:22:07.417Z,99.99
2016-07-13T03:23:07.404Z,99.99
2016-07-13T03:24:07.398Z,99.99
2016-07-13T03:25:07.387Z,99.99
2016-07-13T03:26:07.363Z,99.99
2016-07-13T03:27:07.347Z,99.99
2016-07-13T03:28:07.337Z,99.99
2016-07-13T03:29:07.331Z,99.99
2016-07-13T03:30:07.309Z,99.99
2016-07-13T03:31:07.299Z,99.99
2016-07-13T03:32:06.570Z,99.99
2016-07-13T03:33:07.263Z,99.99
2016-07-13T03:34:07.269Z,99.99
2016-07-13T03:35:06.524Z,99.99
2016-07-13T03:36:07.221Z,99.99
2016-07-13T03:37:07.203Z,99.99
2016-07-13T03:38:07.195Z,99.99
2016-07-13T03:39:07.182Z,99.99
2016-07-13T03:40:07.166Z,99.99
2016-07-13T03:41:07.162Z,99.99
2016-07-13T03:42:07.142Z,99.99
2016-07-13T03:43:07.133Z,99.99
2016-07-13T03:44:07.101Z,99.99
2016-07-13T03:45:07.088Z,99.99
2016-07-13T03:46:07.091Z,99.99
2016-07-13T03:47:07.074Z,99.99
2016-07-13T03:48:07.045Z,99.99
2016-07-13T03:49:07.038Z,99.99
2016-07-13T03:50:07.025Z,99.99
2016-07-13T03:51:07.007Z,99.99
2016-07-13T03:52:06.998Z,99.99
2016-07-13T03:53:06.978Z,99.99
2016-07-13T03:54:06.968Z,99.99
2016-07-13T03:55:06.237Z,99.99
2016-07-13T03:56:06.932Z,99.99
2016-07-13T03:57:06.926Z,99.99
2016-07-13T03:58:06.911Z,99.99
2016-07-13T03:59:06.900Z,99.99
2016-07-13T04:00:06.878Z,99.99
2016-07-13T04:01:06.877Z,99.99
2016-07-13T04:02:06.862Z,99.99
2016-07-13T04:03:06.837Z,99.99
2016-07-13T04:04:06.829Z,99.99
2016-07-13T04:05:06.806Z,99.99
2016-07-13T04:06:06.802Z,99.99
2016-07-13T04:07:06.780Z,99.99
2016-07-13T04:08:06.765Z,99.99
2016-07-13T04:09:06.750Z,99.99
2016-07-13T04:10:06.748Z,99.99
2016-07-13T04:11:06.719Z,99.99
2016-07-13T04:12:06.707Z,99.99
2016-07-13T04:13:06.690Z,99.99
2016-07-13T04:14:06.680Z,99.99
2016-07-13T04:15:06.692Z,99.99
2016-07-13T04:16:06.642Z,99.99
2016-07-13T04:17:05.967Z,99.99
2016-07-13T04:18:06.615Z,99.99
2016-07-13T04:19:06.698Z,99.99
2016-07-13T04:20:06.598Z,99.99
2016-07-13T04:21:06.591Z,99.99
2016-07-13T04:22:05.850Z,99.99
2016-07-13T04:23:06.543Z,99.99
2016-07-13T04:24:05.823Z,99.99
2016-07-13T04:25:06.571Z,99.99
2016-07-13T04:26:06.507Z,99.99
2016-07-13T04:27:06.551Z,99.99
2016-07-13T04:28:06.491Z,99.99
2016-07-13T04:29:06.476Z,99.99
2016-07-13T04:30:06.448Z,99.99
2016-07-13T04:31:06.452Z,99.99
2016-07-13T04:32:05.711Z,99.99
2016-07-13T04:33:06.401Z,99.99
2016-07-13T04:34:06.388Z,99.99
2016-07-13T04:35:06.401Z,99.99
2016-07-13T04:36:06.369Z,99.99
2016-07-13T04:37:06.345Z,99.99
2016-07-13T04:38:06.337Z,99.99
2016-07-13T04:39:05.616Z,99.99
2016-07-13T04:40:06.317Z,99.99
2016-07-13T04:41:06.295Z,99.99
2016-07-13T04:42:06.280Z,99.99
2016-07-13T04:43:06.320Z,99.99
2016-07-13T04:44:06.242Z,99.99
2016-07-13T04:45:06.289Z,99.99
2016-07-13T04:46:05.502Z,99.99
2016-07-13T04:47:06.255Z,99.99
2016-07-13T04:48:06.196Z,99.99
2016-07-13T04:49:06.181Z,99.99
2016-07-13T04:50:05.459Z,99.99
2016-07-13T04:51:06.149Z,99.99
2016-07-13T04:52:06.133Z,99.99
2016-07-13T04:53:06.131Z,99.99
2016-07-13T04:54:06.118Z,99.99
2016-07-13T04:55:06.111Z,99.99
2016-07-13T04:56:06.082Z,99.99
2016-07-13T04:57:06.081Z,99.99
2016-07-13T04:58:06.050Z,99.99
2016-07-13T04:59:06.090Z,99.99
2016-07-13T05:00:06.038Z,99.99
2016-07-13T05:01:05.294Z,99.99
2016-07-13T05:02:05.286Z,99.99
2016-07-13T05:03:05.991Z,99.99
2016-07-13T05:04:05.982Z,99.99
2016-07-13T05:05:06.027Z,99.99
2016-07-13T05:06:05.944Z,99.99
2016-07-13T05:07:05.934Z,99.99
2016-07-13T05:08:05.916Z,99.99
2016-07-13T05:09:05.184Z,99.99
2016-07-13T05:10:05.888Z,99.99
2016-07-13T05:11:05.158Z,99.99
2016-07-13T05:12:05.848Z,99.99
2016-07-13T05:13:05.132Z,99.99
2016-07-13T05:14:05.825Z,99.99
2016-07-13T05:15:05.817Z,99.99
2016-07-13T05:16:05.808Z,99.99
2016-07-13T05:17:05.818Z,99.99
2016-07-13T05:18:05.775Z,99.99
2016-07-13T05:19:05.761Z,99.99
2016-07-13T05:20:05.747Z,99.99
2016-07-13T05:21:05.737Z,99.99
2016-07-13T05:22:05.007Z,99.99
2016-07-13T05:23:05.704Z,99.99
2016-07-13T05:24:05.696Z,99.99
2016-07-13T05:25:05.677Z,99.99
2016-07-13T05:26:05.669Z,99.99
2016-07-13T05:27:05.645Z,99.99
2016-07-13T05:28:05.639Z,99.99
2016-07-13T05:29:05.621Z,99.99
2016-07-13T05:30:04.898Z,99.99
2016-07-13T05:31:04.879Z,99.99
2016-07-13T05:32:05.575Z,99.99
2016-07-13T05:33:05.568Z,99.99
2016-07-13T05:34:05.544Z,99.99
2016-07-13T05:35:05.535Z,99.99
2016-07-13T05:36:05.519Z,99.99
2016-07-13T05:37:05.521Z,99.99
2016-07-13T05:38:04.779Z,99.99
2016-07-13T05:39:05.478Z,99.99
2016-07-13T05:40:05.473Z,99.99
2016-07-13T05:41:05.438Z,99.99
2016-07-13T05:42:04.721Z,99.99
2016-07-13T05:43:04.720Z,99.99
2016-07-13T05:44:05.405Z,99.99
2016-07-13T05:45:05.394Z,99.99
2016-07-13T05:46:05.396Z,99.99
2016-07-13T05:47:05.363Z,99.99
2016-07-13T05:48:05.356Z,99.99
2016-07-13T05:49:05.332Z,99.99
2016-07-13T05:50:05.331Z,99.99
2016-07-13T05:51:04.601Z,99.99
2016-07-13T05:52:05.296Z,99.99
2016-07-13T05:53:04.570Z,99.99
2016-07-13T05:54:05.259Z,99.99
2016-07-13T05:55:05.257Z,99.99
2016-07-13T05:56:05.238Z,99.99
2016-07-13T05:57:04.519Z,99.99
2016-07-13T05:58:05.215Z,99.99
2016-07-13T05:59:05.207Z,99.99
2016-07-13T06:00:05.192Z,99.99
2016-07-13T06:01:05.176Z,99.99
2016-07-13T06:02:05.157Z,99.99
2016-07-13T06:03:05.146Z,99.99
2016-07-13T06:04:05.136Z,99.99
2016-07-13T06:05:05.113Z,99.99
2016-07-13T06:06:05.109Z,99.99
2016-07-13T06:07:05.088Z,99.99
2016-07-13T06:08:05.074Z,99.99
2016-07-13T06:09:05.063Z,99.99
2016-07-13T06:10:05.052Z,99.99
2016-07-13T06:11:04.329Z,99.99
2016-07-13T06:12:05.027Z,99.99
2016-07-13T06:13:05.010Z,99.99
2016-07-13T06:14:05.026Z,99.99
2016-07-13T06:15:04.269Z,99.99
2016-07-13T06:16:04.982Z,99.99
2016-07-13T06:17:04.962Z,99.99
2016-07-13T06:18:04.963Z,99.99
2016-07-13T06:19:04.942Z,99.99
2016-07-13T06:20:04.919Z,99.99
2016-07-13T06:21:04.925Z,99.99
2016-07-13T06:22:04.912Z,99.99
2016-07-13T06:23:04.892Z,99.99
2016-07-13T06:24:04.161Z,99.99
2016-07-13T06:25:04.860Z,99.99
2016-07-13T06:26:04.124Z,99.99
2016-07-13T06:27:04.833Z,99.99
2016-07-13T06:28:04.815Z,99.99
2016-07-13T06:29:04.797Z,99.99
2016-07-13T06:30:04.080Z,99.99
2016-07-13T06:31:04.782Z,99.99
2016-07-13T06:32:04.753Z,99.99
2016-07-13T06:33:04.747Z,99.99
2016-07-13T06:34:04.743Z,99.99
2016-07-13T06:35:04.718Z,99.99
2016-07-13T06:36:04.724Z,99.99
2016-07-13T06:37:04.703Z,99.99
2016-07-13T06:38:04.692Z,99.99
2016-07-13T06:39:04.673Z,99.99
2016-07-13T06:40:04.670Z,99.99
2016-07-13T06:41:04.661Z,99.78
2016-07-13T06:42:04.637Z,99.21
2016-07-13T06:43:04.621Z,99.01
2016-07-13T06:44:04.611Z,99.78
2016-07-13T06:45:04.613Z,99.99
2016-07-13T06:46:04.589Z,99.99
2016-07-13T06:47:04.569Z,99.99
2016-07-13T06:48:04.557Z,99.99
2016-07-13T06:49:04.554Z,99.99
2016-07-13T06:50:04.525Z,99.83
2016-07-13T06:51:03.864Z,99.4
2016-07-13T06:52:04.509Z,99.01
2016-07-13T06:53:03.784Z,98.72
2016-07-13T06:54:04.477Z,99.88
2016-07-13T06:55:03.805Z,99.3
2016-07-13T06:56:03.740Z,98.53
2016-07-13T06:57:04.444Z,98.24
2016-07-13T06:58:03.729Z,97.42
2016-07-13T06:59:03.881Z,97.76
2016-07-13T07:00:03.707Z,97.04
2016-07-13T07:01:04.414Z,96.47
2016-07-13T07:02:03.671Z,96.27
2016-07-13T07:03:03.725Z,96.75
2016-07-13T07:04:04.363Z,96.56
2016-07-13T07:05:04.420Z,97.19
2016-07-13T07:06:04.331Z,97.76
2016-07-13T07:07:04.379Z,98.91
2016-07-13T07:08:04.320Z,98.53
2016-07-13T07:09:04.307Z,98.44
2016-07-13T07:10:04.291Z,98.53
2016-07-13T07:11:04.294Z,97.86
2016-07-13T07:12:04.267Z,96.42
2016-07-13T07:13:04.275Z,96.22
2016-07-13T07:14:04.230Z,95.94
2016-07-13T07:15:04.240Z,95.4
2016-07-13T07:16:04.232Z,96.42
2016-07-13T07:17:04.204Z,96.08
2016-07-13T07:18:03.470Z,95.4
2016-07-13T07:19:04.203Z,94.45
2016-07-13T07:20:04.169Z,94.2
2016-07-13T07:21:04.211Z,94.83
2016-07-13T07:22:04.145Z,93.15
2016-07-13T07:23:03.413Z,92.76
2016-07-13T07:24:04.115Z,91.99
2016-07-13T07:25:04.109Z,93.24
2016-07-13T07:26:03.383Z,93.24
2016-07-13T07:27:04.079Z,93.48
2016-07-13T07:28:04.067Z,92.47
2016-07-13T07:29:03.363Z,90.97
2016-07-13T07:30:04.049Z,91.17
2016-07-13T07:31:04.044Z,91.51
2016-07-13T07:32:04.027Z,90.59
2016-07-13T07:33:04.024Z,89.86
2016-07-13T07:34:03.997Z,89.86
2016-07-13T07:35:03.987Z,90.34
2016-07-13T07:36:03.982Z,89.96
2016-07-13T07:37:03.969Z,88.42
2016-07-13T07:38:03.964Z,88.42
2016-07-13T07:39:03.951Z,87.55
2016-07-13T07:40:03.942Z,87.26
2016-07-13T07:41:03.915Z,87.17
2016-07-13T07:42:03.907Z,85.72
2016-07-13T07:43:03.920Z,84.18
2016-07-13T07:44:03.892Z,84.76
2016-07-13T07:45:03.888Z,83.99
2016-07-13T07:46:03.876Z,84.52
2016-07-13T07:47:03.854Z,83.84
2016-07-13T07:48:03.132Z,83.4
2016-07-13T07:49:03.841Z,82.53
2016-07-13T07:50:03.832Z,82.24
2016-07-13T07:51:03.101Z,82.14
2016-07-13T07:52:03.795Z,81.85
2016-07-13T07:53:03.785Z,82.14
2016-07-13T07:54:03.776Z,81.47
2016-07-13T07:55:03.773Z,81.95
2016-07-13T07:56:03.759Z,81.51
2016-07-13T07:57:03.743Z,82.92
2016-07-13T07:58:03.743Z,83.3
2016-07-13T07:59:03.723Z,82.72
2016-07-13T08:00:03.721Z,81.99
2016-07-13T08:01:03.718Z,83.44
2016-07-13T08:02:03.689Z,80.58
2016-07-13T08:03:03.679Z,77.11
2016-07-13T08:04:03.674Z,78.08
2016-07-13T08:05:03.658Z,79.29
2016-07-13T08:06:03.671Z,81.37
2016-07-13T08:07:03.643Z,81.72
2016-07-13T08:08:03.634Z,80.46
2016-07-13T08:09:02.912Z,79.83
2016-07-13T08:10:03.611Z,80.12
2016-07-13T08:11:02.893Z,81.22
2016-07-13T08:12:03.601Z,80.45
2016-07-13T08:13:03.582Z,80.1
2016-07-13T08:14:03.587Z,79.52
2016-07-13T08:15:03.586Z,78.66
2016-07-13T08:16:02.843Z,77.88
2016-07-13T08:17:03.550Z,77.98
2016-07-13T08:18:03.533Z,77.69
2016-07-13T08:19:03.518Z,76.72
2016-07-13T08:20:03.539Z,76.72
2016-07-13T08:21:02.790Z,76.72
2016-07-13T08:22:02.768Z,77.88
2016-07-13T08:23:03.485Z,78.41
2016-07-13T08:24:03.480Z,78.02
2016-07-13T08:25:03.457Z,78.31
2016-07-13T08:26:03.459Z,78.36
2016-07-13T08:27:03.437Z,78.52
2016-07-13T08:28:03.453Z,78.52
2016-07-13T08:29:02.701Z,78.91
2016-07-13T08:30:02.695Z,79.43
2016-07-13T08:31:03.410Z,80.54
2016-07-13T08:32:03.401Z,80.64
2016-07-13T08:33:03.379Z,80.49
2016-07-13T08:34:03.367Z,78.66
2016-07-13T08:35:03.356Z,78.08
2016-07-13T08:36:03.348Z,77.34
2016-07-13T08:37:03.331Z,76.24
2016-07-13T08:38:03.331Z,75.7
2016-07-13T08:39:03.318Z,75.89
2016-07-13T08:40:03.306Z,75.74
2016-07-13T08:41:03.297Z,74.29
2016-07-13T08:42:03.286Z,73.61
2016-07-13T08:43:03.290Z,74.58
2016-07-13T08:44:03.267Z,75.6
2016-07-13T08:45:03.261Z,75.31
2016-07-13T08:46:03.245Z,75.79
2016-07-13T08:47:03.241Z,74.64
2016-07-13T08:48:03.227Z,74.25
2016-07-13T08:49:03.214Z,73.9
2016-07-13T08:50:03.211Z,74.64
2016-07-13T08:51:03.200Z,75.22
2016-07-13T08:52:03.186Z,75.22
2016-07-13T08:53:03.177Z,73.58
2016-07-13T08:54:03.169Z,73.09
2016-07-13T08:55:03.146Z,73.38
2016-07-13T08:56:02.431Z,73.9
2016-07-13T08:57:03.155Z,73.22
2016-07-13T08:58:03.120Z,71.2
2016-07-13T08:59:03.119Z,71.2
2016-07-13T09:00:03.106Z,71.68
2016-07-13T09:01:03.096Z,72.52
2016-07-13T09:02:03.086Z,72.74
2016-07-13T09:03:03.080Z,71.2
2016-07-13T09:04:02.347Z,71
2016-07-13T09:05:03.056Z,71.68
2016-07-13T09:06:03.050Z,71.3
2016-07-13T09:07:03.036Z,71.23
2016-07-13T09:08:03.024Z,71.42
2016-07-13T09:09:02.309Z,70.88
2016-07-13T09:10:02.287Z,71.36
2016-07-13T09:11:03.020Z,69.82
2016-07-13T09:12:02.986Z,69.53
2016-07-13T09:13:02.981Z,68.46
2016-07-13T09:14:02.988Z,69.82
2016-07-13T09:15:02.958Z,66.47
2016-07-13T09:16:02.949Z,65.3
2016-07-13T09:17:02.227Z,66.37
2016-07-13T09:18:02.938Z,67.01
2016-07-13T09:19:02.926Z,66.95
2016-07-13T09:20:02.210Z,68.11
2016-07-13T09:21:02.907Z,68.37
2016-07-13T09:22:02.892Z,68.56
2016-07-13T09:23:02.888Z,69.46
2016-07-13T09:24:02.883Z,69.56
2016-07-13T09:25:02.164Z,69.14
2016-07-13T09:26:02.145Z,69.43
2016-07-13T09:27:02.855Z,69.14
2016-07-13T09:28:02.848Z,69.46
2016-07-13T09:29:02.118Z,69.24
2016-07-13T09:30:02.824Z,69.33
2016-07-13T09:31:02.811Z,68.75
2016-07-13T09:32:02.805Z,69.14
2016-07-13T09:33:02.796Z,68.95
2016-07-13T09:34:02.800Z,69.24
2016-07-13T09:35:02.791Z,67.33
2016-07-13T09:36:02.771Z,67.21
2016-07-13T09:37:02.045Z,68.01
2016-07-13T09:38:02.087Z,67.33
2016-07-13T09:39:02.742Z,67.85
2016-07-13T09:40:02.735Z,69.43
2016-07-13T09:41:02.020Z,67.79
2016-07-13T09:42:01.998Z,68.27
2016-07-13T09:43:02.704Z,67.98
2016-07-13T09:44:02.701Z,67.21
2016-07-13T09:45:01.978Z,68.04
2016-07-13T09:46:02.683Z,68.88
2016-07-13T09:47:01.959Z,69.71
2016-07-13T09:48:02.657Z,70.42
2016-07-13T09:49:02.642Z,71.14
2016-07-13T09:50:02.671Z,70.3
2016-07-13T09:51:02.637Z,68.98
2016-07-13T09:52:01.967Z,68.63
2016-07-13T09:53:02.627Z,67.66
2016-07-13T09:54:01.890Z,67.95
2016-07-13T09:55:02.614Z,67.66
2016-07-13T09:56:02.583Z,67.56
2016-07-13T09:57:02.578Z,67.98
2016-07-13T09:58:02.562Z,66.34
2016-07-13T09:59:02.548Z,66.72
2016-07-13T10:00:01.876Z,66.34
2016-07-13T10:01:02.545Z,65.75
2016-07-13T10:02:01.817Z,66.3
2016-07-13T10:03:02.531Z,65.53
2016-07-13T10:04:01.797Z,65.53
2016-07-13T10:05:02.501Z,65.11
2016-07-13T10:06:02.503Z,65.01
2016-07-13T10:07:02.489Z,64.14
2016-07-13T10:08:02.483Z,65.01
2016-07-13T10:09:02.470Z,66.37
2016-07-13T10:10:01.750Z,66.43
2016-07-13T10:11:02.461Z,66.17
2016-07-13T10:12:01.726Z,66.69
2016-07-13T10:13:01.729Z,66.24
2016-07-13T10:14:02.428Z,67.24
2016-07-13T10:15:02.417Z,67.14
2016-07-13T10:16:02.418Z,67.82
2016-07-13T10:17:01.707Z,67.76
2016-07-13T10:18:02.389Z,67.46
2016-07-13T10:19:02.382Z,66.2
2016-07-13T10:20:02.380Z,66.24
2016-07-13T10:21:01.658Z,67.02
2016-07-13T10:22:02.354Z,66.53
2016-07-13T10:23:02.355Z,65.85
2016-07-13T10:24:01.629Z,65.92
2016-07-13T10:25:02.337Z,66.17
2016-07-13T10:26:02.328Z,66.43
2016-07-13T10:27:02.319Z,66.53
2016-07-13T10:28:02.303Z,65.47
2016-07-13T10:29:02.319Z,66.24
2016-07-13T10:30:02.297Z,65.88
2016-07-13T10:31:02.329Z,65.59
2016-07-13T10:32:01.560Z,64.24
2016-07-13T10:33:02.273Z,63.79
2016-07-13T10:34:02.262Z,63.79
2016-07-13T10:35:02.257Z,63.49
2016-07-13T10:36:02.241Z,62.92
2016-07-13T10:37:01.541Z,63.34
2016-07-13T10:38:02.234Z,63.43
2016-07-13T10:39:02.229Z,63.89
2016-07-13T10:40:01.501Z,63.43
2016-07-13T10:41:01.487Z,63.85
2016-07-13T10:42:02.194Z,64.17
2016-07-13T10:43:02.201Z,60.81
2016-07-13T10:44:02.187Z,59.94
2016-07-13T10:45:01.517Z,59.74
2016-07-13T10:46:02.177Z,59.36
2016-07-13T10:47:02.208Z,58.48
2016-07-13T10:48:02.157Z,57.12
2016-07-13T10:49:02.150Z,57.29
2016-07-13T10:50:02.135Z,57.68
2016-07-13T10:51:02.222Z,57.19
2016-07-13T10:52:01.405Z,56.9
2016-07-13T10:53:02.124Z,57.45
2016-07-13T10:54:01.392Z,58.11
2016-07-13T10:55:02.136Z,58.04
2016-07-13T10:56:02.094Z,57.19
2016-07-13T10:57:02.091Z,55.57
2016-07-13T10:58:02.075Z,56.13
2016-07-13T10:59:02.089Z,56.68
2016-07-13T11:00:02.064Z,55.93
2016-07-13T11:01:02.063Z,58.06
2016-07-13T11:02:02.129Z,59.3
2016-07-13T11:03:02.048Z,60.24
2016-07-13T11:04:01.374Z,61.11
2016-07-13T11:05:02.024Z,61.21
2016-07-13T11:06:02.018Z,60.75
2016-07-13T11:07:02.017Z,60.85
2016-07-13T11:08:01.295Z,61.72
2016-07-13T11:09:01.996Z,61.17
2016-07-13T11:10:01.985Z,61.07
2016-07-13T11:11:01.264Z,60.65
2016-07-13T11:12:01.974Z,61.72
2016-07-13T11:13:01.245Z,60.36
2016-07-13T11:14:01.954Z,58.84
2016-07-13T11:15:01.236Z,58.55
2016-07-13T11:16:01.959Z,58.55
2016-07-13T11:17:01.218Z,59.39
2016-07-13T11:18:01.220Z,59.94
2016-07-13T11:19:01.928Z,60.4
2016-07-13T11:20:01.919Z,60.98
2016-07-13T11:21:01.907Z,61.18
2016-07-13T11:22:01.900Z,61.92
2016-07-13T11:23:01.886Z,61.27
2016-07-13T11:24:01.877Z,61.21
2016-07-13T11:25:01.154Z,61.91
2016-07-13T11:26:01.151Z,60.58
2016-07-13T11:27:01.860Z,58.94
2016-07-13T11:28:01.138Z,60.07
2016-07-13T11:29:01.835Z,60.43
2016-07-13T11:30:01.112Z,61.18
2016-07-13T11:31:02.029Z,61.46
2016-07-13T11:32:01.826Z,61.18
2016-07-13T11:33:01.087Z,60.43
2016-07-13T11:34:01.828Z,60.55
2016-07-13T11:35:01.144Z,59.3
2016-07-13T11:36:01.831Z,60.46
2016-07-13T11:37:01.060Z,60.94
2016-07-13T11:38:01.769Z,61.43
2016-07-13T11:39:01.750Z,61.24
2016-07-13T11:40:01.751Z,58.94
2016-07-13T11:41:01.732Z,58.06
2016-07-13T11:42:01.740Z,58.72
2016-07-13T11:43:01.770Z,58.91
2016-07-13T11:44:00.991Z,58.33
2016-07-13T11:45:00.995Z,58.04
2016-07-13T11:46:00.978Z,58.98
2016-07-13T11:47:01.684Z,59.66
2016-07-13T11:48:00.973Z,59.84
2016-07-13T11:49:01.681Z,60.04
2016-07-13T11:50:01.662Z,60.24
2016-07-13T11:51:01.650Z,60.88
2016-07-13T11:52:01.648Z,61.46
2016-07-13T11:53:01.649Z,60.59
2016-07-13T11:54:01.640Z,61.05
2016-07-13T11:55:01.626Z,61.24
2016-07-13T11:56:01.618Z,60.3
2016-07-13T11:57:01.606Z,60.69
2016-07-13T11:58:01.597Z,60.85
2016-07-13T11:59:01.591Z,59.72
2016-07-13T12:00:00.874Z,58.78
2016-07-13T12:01:01.666Z,58.91
2016-07-13T12:02:01.567Z,57.78
2016-07-13T12:03:01.557Z,56.9
2016-07-13T12:04:01.569Z,57.43
2016-07-13T12:05:01.591Z,57.65
2016-07-13T12:06:01.535Z,57.26
2016-07-13T12:07:00.880Z,57.29
2016-07-13T12:08:00.810Z,57.65
2016-07-13T12:09:01.514Z,57.09
2016-07-13T12:10:01.505Z,56.32
2016-07-13T12:11:00.786Z,57
2016-07-13T12:12:01.485Z,57.22
2016-07-13T12:13:01.473Z,55.99
2016-07-13T12:14:01.466Z,56.45
2016-07-13T12:15:00.745Z,57.51
2016-07-13T12:16:01.460Z,57.22
2016-07-13T12:17:00.732Z,57.83
2016-07-13T12:18:01.439Z,56.47
2016-07-13T12:19:01.439Z,56.67
2016-07-13T12:20:01.429Z,57.42
2016-07-13T12:21:01.419Z,57.39
2016-07-13T12:22:01.405Z,57.45
2016-07-13T12:23:00.687Z,57.75
2016-07-13T12:24:01.402Z,58.42
2016-07-13T12:25:01.402Z,58.62
2016-07-13T12:26:01.399Z,58.91
2016-07-13T12:27:00.657Z,59.2
2016-07-13T12:28:01.383Z,58.81
2016-07-13T12:29:01.371Z,59.23
2016-07-13T12:30:01.344Z,59.78
2016-07-13T12:31:00.624Z,61.24
2016-07-13T12:32:00.617Z,60.27
2016-07-13T12:33:01.324Z,60.55
2016-07-13T12:34:01.317Z,61.52
2016-07-13T12:35:00.586Z,61.14
2016-07-13T12:36:01.297Z,60.17
2016-07-13T12:37:01.291Z,60.55
2016-07-13T12:38:01.284Z,60.46
2016-07-13T12:39:01.281Z,60.52
2016-07-13T12:40:01.271Z,61.36
2016-07-13T12:41:00.538Z,62.59
2016-07-13T12:42:01.254Z,63.37
2016-07-13T12:43:01.235Z,63.66
2016-07-13T12:44:01.229Z,63.56
2016-07-13T12:45:01.218Z,63.24
2016-07-13T12:46:01.213Z,63.73
2016-07-13T12:47:01.208Z,64.95
2016-07-13T12:48:01.200Z,64.95
2016-07-13T12:49:01.185Z,64.85
2016-07-13T12:50:01.184Z,65.27
2016-07-13T12:51:01.164Z,66.05
2016-07-13T12:52:01.155Z,66.69
2016-07-13T12:53:01.151Z,67.36